Time;durP1;ratioP1;P1;durP2;ratioP2;P2;SDS_P1;SDS_P2;PMS_P1;PMS_P2;Temp;Humidity;BMP_temperature;BMP_pressure;BME280_temperature;BME280_humidity;BME280_pressure;Samples;Min_cycle;Max_cycle;Signal;HPM_P1;HPM_P2
2023/04/04 00:02:08;;;;;;;13.43;8.82;;;16.20;42.80;;;;;;5016947;28;20201;-79
2023/04/04 00:04:36;;;;;;;11.40;8.93;;;16.20;42.80;;;;;;5001832;28;20201;-79
2023/04/04 00:07:03;;;;;;;13.07;10.13;;;16.20;42.80;;;;;;5035551;28;20278;-79
2023/04/04 00:09:30;;;;;;;14.02;9.57;;;16.10;43.20;;;;;;5018979;28;20188;-79
2023/04/04 00:11:58;;;;;;;14.38;10.15;;;16.20;42.80;;;;;;5018416;28;20212;-79
2023/04/04 00:14:28;;;;;;;12.20;9.70;;;16.10;42.80;;;;;;5018928;28;20217;-79
2023/04/04 00:16:55;;;;;;;12.73;9.32;;;16.10;43.10;;;;;;5017159;28;20271;-79
2023/04/04 00:19:24;;;;;;;12.30;9.32;;;16.10;42.70;;;;;;5002223;28;20287;-79
2023/04/04 00:21:51;;;;;;;12.10;9.75;;;16.10;42.70;;;;;;5033760;22;20228;-79
2023/04/04 00:24:18;;;;;;;10.80;8.55;;;16.10;42.40;;;;;;5017481;28;20196;-79
2023/04/04 00:26:45;;;;;;;12.15;9.20;;;16.10;42.40;;;;;;5017503;28;20620;-79
2023/04/04 00:29:14;;;;;;;10.27;8.93;;;16.00;42.50;;;;;;5018200;28;20546;-79
2023/04/04 00:31:41;;;;;;;11.05;8.82;;;16.10;42.40;;;;;;5036938;28;20192;-79
2023/04/04 00:34:08;;;;;;;11.60;9.10;;;16.10;42.70;;;;;;5024818;28;20299;-79
2023/04/04 00:36:36;;;;;;;10.75;8.50;;;16.10;42.30;;;;;;5020822;28;20219;-79
2023/04/04 00:39:05;;;;;;;10.73;8.85;;;16.00;42.30;;;;;;5001536;28;20216;-79
2023/04/04 00:41:32;;;;;;;11.55;8.55;;;16.10;42.40;;;;;;5034982;28;20188;-79
2023/04/04 00:43:59;;;;;;;10.68;7.97;;;16.00;42.10;;;;;;5017605;28;20204;-78
2023/04/04 00:46:28;;;;;;;12.23;8.30;;;16.00;42.20;;;;;;5017209;28;20251;-78
2023/04/04 00:48:56;;;;;;;9.73;7.72;;;16.00;42.20;;;;;;5000671;28;20200;-78
2023/04/04 00:51:23;;;;;;;11.95;8.40;;;16.00;41.80;;;;;;5000599;28;20250;-78
2023/04/04 00:53:50;;;;;;;10.32;7.95;;;16.00;42.00;;;;;;5017406;28;20199;-79
2023/04/04 00:56:18;;;;;;;9.65;7.38;;;16.00;42.30;;;;;;5016689;28;20278;-79
2023/04/04 00:58:46;;;;;;;10.23;8.00;;;16.00;42.20;;;;;;5016736;28;20214;-79
2023/04/04 01:01:14;;;;;;;9.48;7.65;;;16.00;42.10;;;;;;5016476;28;20199;-79
2023/04/04 01:03:44;;;;;;;10.38;7.95;;;15.90;42.10;;;;;;5016551;28;20631;-79
2023/04/04 01:06:11;;;;;;;11.30;8.07;;;15.90;42.10;;;;;;5016578;28;20706;-79
2023/04/04 01:08:38;;;;;;;10.05;8.10;;;15.90;42.10;;;;;;5016891;28;20286;-79
2023/04/04 01:11:06;;;;;;;9.85;7.43;;;15.90;42.20;;;;;;5016777;28;20196;-78
2023/04/04 01:13:33;;;;;;;10.00;7.72;;;15.90;42.10;;;;;;5016647;28;20199;-78
2023/04/04 01:16:01;;;;;;;8.90;7.70;;;15.90;42.40;;;;;;5016623;28;20199;-78
2023/04/04 01:18:28;;;;;;;9.40;7.82;;;15.90;42.50;;;;;;5016506;28;20590;-78
2023/04/04 01:21:00;;;;;;;9.15;7.57;;;15.90;42.40;;;;;;5016977;28;20220;-78
2023/04/04 01:23:32;;;;;;;9.05;7.28;;;15.90;42.50;;;;;;5016627;28;20717;-78
2023/04/04 01:26:02;;;;;;;9.15;6.63;;;15.80;42.40;;;;;;5034133;28;20188;-78
2023/04/04 01:28:32;;;;;;;9.40;7.22;;;15.80;42.30;;;;;;5015577;28;20196;-78
2023/04/04 01:31:00;;;;;;;9.27;6.88;;;15.80;42.40;;;;;;5016398;28;20192;-78
2023/04/04 01:33:29;;;;;;;7.03;6.28;;;15.80;42.30;;;;;;5016424;28;20195;-78
2023/04/04 01:36:02;;;;;;;10.25;7.38;;;15.80;42.30;;;;;;5016913;28;20212;-79
2023/04/04 01:38:33;;;;;;;9.32;6.88;;;15.70;42.40;;;;;;5016302;28;20592;-79
2023/04/04 01:41:06;;;;;;;8.20;6.88;;;15.70;42.30;;;;;;5016388;28;20215;-79
2023/04/04 01:43:36;;;;;;;8.60;6.80;;;15.70;42.30;;;;;;5016396;28;20729;-79
2023/04/04 01:46:03;;;;;;;8.57;6.43;;;15.70;42.30;;;;;;5016988;28;20579;-79
2023/04/04 01:48:30;;;;;;;7.97;6.57;;;15.70;42.30;;;;;;5016066;28;20280;-79
2023/04/04 01:51:02;;;;;;;8.88;6.55;;;15.60;42.30;;;;;;5016440;28;20550;-79
2023/04/04 01:53:29;;;;;;;6.93;5.93;;;15.60;42.30;;;;;;5016233;28;20195;-79
2023/04/04 01:55:57;;;;;;;8.27;6.60;;;15.60;42.20;;;;;;5015896;28;20219;-78
2023/04/04 01:58:26;;;;;;;7.53;6.25;;;15.60;42.30;;;;;;5016101;28;20216;-78
2023/04/04 02:00:53;;;;;;;7.15;5.82;;;15.60;42.30;;;;;;5015979;28;20562;-78
2023/04/04 02:03:21;;;;;;;6.72;6.03;;;15.60;42.30;;;;;;5016008;28;20230;-78
2023/04/04 02:05:48;;;;;;;6.95;5.65;;;15.60;42.30;;;;;;5015936;28;20358;-78
2023/04/04 02:08:16;;;;;;;6.20;5.55;;;15.60;42.30;;;;;;5015849;28;20614;-78
2023/04/04 02:10:50;;;;;;;7.90;6.38;;;15.50;42.20;;;;;;5001062;28;20279;-78
2023/04/04 02:13:17;;;;;;;7.68;6.00;;;15.50;42.30;;;;;;5016323;28;20207;-78
2023/04/04 02:15:48;;;;;;;6.25;5.63;;;15.50;42.50;;;;;;5015947;28;20250;-78
2023/04/04 02:18:15;;;;;;;6.72;5.57;;;15.50;42.60;;;;;;5016233;28;20196;-78
2023/04/04 02:20:42;;;;;;;7.72;6.00;;;15.50;42.60;;;;;;5015992;28;20235;-79
2023/04/04 02:23:10;;;;;;;9.15;5.93;;;15.40;42.50;;;;;;5016244;28;20200;-79
2023/04/04 02:25:37;;;;;;;7.72;6.20;;;15.40;42.50;;;;;;5016496;28;20200;-79
2023/04/04 02:28:04;;;;;;;8.90;6.15;;;15.40;42.60;;;;;;5016651;28;20721;-79
2023/04/04 02:30:31;;;;;;;6.60;5.30;;;15.40;42.60;;;;;;5000620;28;20199;-79
2023/04/04 02:33:01;;;;;;;6.32;5.38;;;15.40;42.70;;;;;;5016940;28;20207;-79
2023/04/04 02:35:29;;;;;;;7.10;5.65;;;15.40;42.70;;;;;;5038930;28;20177;-79
2023/04/04 02:37:57;;;;;;;6.72;5.47;;;15.40;42.80;;;;;;5023346;28;20267;-79
2023/04/04 02:40:28;;;;;;;7.07;5.85;;;15.30;42.60;;;;;;5004134;28;20216;-79
2023/04/04 02:42:55;;;;;;;7.40;5.70;;;15.30;42.60;;;;;;5020393;28;20200;-79
2023/04/04 02:45:22;;;;;;;6.40;4.97;;;15.30;42.70;;;;;;5006254;28;20223;-79
2023/04/04 02:47:59;;;;;;;5.82;5.22;;;15.30;42.90;;;;;;5023797;28;20219;-79
2023/04/04 02:50:37;;;;;;;6.32;5.28;;;15.30;42.70;;;;;;5025563;28;20188;-79
2023/04/04 02:53:05;;;;;;;7.35;5.65;;;15.30;42.60;;;;;;5008406;28;20200;-79
2023/04/04 02:55:35;;;;;;;5.72;5.10;;;15.20;42.50;;;;;;5028325;28;20215;-79
2023/04/04 02:58:01;;;;;;;5.95;5.13;;;15.20;42.40;;;;;;5033123;28;20745;-79
2023/04/04 03:00:29;;;;;;;6.75;5.00;;;15.20;42.60;;;;;;5023044;28;20216;-79
2023/04/04 03:02:57;;;;;;;6.20;4.97;;;15.20;42.50;;;;;;5019309;28;20196;-79
2023/04/04 03:05:30;;;;;;;5.85;4.95;;;15.20;42.50;;;;;;5019619;28;20251;-79
2023/04/04 03:07:59;;;;;;;6.20;5.00;;;15.20;42.30;;;;;;5019180;28;20220;-79
2023/04/04 03:10:28;;;;;;;5.60;4.95;;;15.20;42.50;;;;;;5019152;28;20195;-79
2023/04/04 03:12:56;;;;;;;6.28;5.43;;;15.20;42.60;;;;;;5019250;28;20196;-79
2023/04/04 03:15:24;;;;;;;7.35;5.03;;;15.20;42.50;;;;;;5020107;28;20250;-79
2023/04/04 03:17:52;;;;;;;6.80;5.40;;;15.20;42.50;;;;;;5027156;28;20236;-79
2023/04/04 03:20:22;;;;;;;5.40;4.70;;;15.20;43.50;;;;;;5033474;28;20223;-79
2023/04/04 03:22:49;;;;;;;5.80;5.05;;;15.20;43.70;;;;;;5020543;28;20204;-79
2023/04/04 03:25:18;;;;;;;5.22;4.72;;;15.10;43.70;;;;;;5020106;28;20262;-79
2023/04/04 03:27:46;;;;;;;5.95;4.78;;;15.10;44.00;;;;;;5003159;28;20587;-79
2023/04/04 03:30:20;;;;;;;5.72;4.57;;;15.10;43.80;;;;;;5004355;28;20202;-79
2023/04/04 03:32:49;;;;;;;5.78;4.78;;;15.10;43.90;;;;;;5018576;28;20573;-78
2023/04/04 03:35:17;;;;;;;5.60;4.95;;;15.10;43.90;;;;;;5018613;28;20206;-78
2023/04/04 03:37:44;;;;;;;6.15;4.50;;;15.10;43.70;;;;;;5018711;28;20462;-78
2023/04/04 03:40:13;;;;;;;5.40;4.45;;;15.00;43.80;;;;;;5018473;28;20307;-78
2023/04/04 03:42:42;;;;;;;5.28;4.40;;;15.10;43.80;;;;;;5019098;28;20250;-80
2023/04/04 03:45:11;;;;;;;7.85;4.60;;;15.10;43.80;;;;;;5019057;28;20211;-80
2023/04/04 03:47:39;;;;;;;6.22;4.90;;;15.10;44.00;;;;;;5018318;28;20208;-80
2023/04/04 03:50:07;;;;;;;5.93;4.68;;;15.00;43.70;;;;;;5018530;28;20196;-80
2023/04/04 03:52:38;;;;;;;5.63;4.88;;;15.00;43.70;;;;;;5018087;28;20206;-80
2023/04/04 03:55:06;;;;;;;6.07;4.72;;;15.00;43.70;;;;;;5018482;28;20255;-80
2023/04/04 03:57:33;;;;;;;4.55;3.95;;;15.00;43.80;;;;;;5018116;28;20243;-80
2023/04/04 04:00:06;;;;;;;5.70;4.70;;;15.00;43.70;;;;;;5018518;28;20254;-79
2023/04/04 04:02:39;;;;;;;5.57;4.70;;;15.00;43.70;;;;;;5036486;28;20620;-79
2023/04/04 04:05:08;;;;;;;5.30;4.80;;;15.00;43.90;;;;;;5018546;28;20226;-79
2023/04/04 04:07:35;;;;;;;4.68;4.25;;;15.00;43.60;;;;;;5018471;28;20271;-79
2023/04/04 04:10:04;;;;;;;4.43;4.03;;;15.00;43.30;;;;;;5018956;28;20201;-79
2023/04/04 04:12:32;;;;;;;4.82;4.32;;;15.00;43.10;;;;;;5019337;28;20239;-79
2023/04/04 04:15:00;;;;;;;4.95;4.40;;;15.00;42.80;;;;;;5017952;28;20577;-80
2023/04/04 04:17:29;;;;;;;5.45;4.20;;;15.10;42.90;;;;;;5017884;28;20212;-80
2023/04/04 04:19:58;;;;;;;5.05;3.92;;;15.10;42.60;;;;;;5018097;28;20216;-79
2023/04/04 04:22:29;;;;;;;5.25;4.43;;;15.10;42.40;;;;;;5017596;28;20210;-79
2023/04/04 04:24:57;;;;;;;4.45;3.90;;;15.20;42.40;;;;;;5017652;28;20610;-79
2023/04/04 04:27:24;;;;;;;4.78;4.00;;;15.20;42.30;;;;;;5017721;28;20247;-79
2023/04/04 04:29:52;;;;;;;4.10;3.70;;;15.20;42.10;;;;;;5018513;28;20204;-78
2023/04/04 04:32:19;;;;;;;5.25;4.07;;;15.20;42.10;;;;;;5017745;28;20262;-78
2023/04/04 04:34:52;;;;;;;4.43;4.03;;;15.20;42.00;;;;;;5002133;28;20275;-81
2023/04/04 04:37:25;;;;;;;4.57;4.07;;;15.20;42.20;;;;;;5018341;28;20580;-83
2023/04/04 04:39:56;;;;;;;4.68;3.53;;;15.20;42.00;;;;;;5002593;28;20223;-83
2023/04/04 04:42:52;;;;;;;4.82;4.10;;;15.30;42.00;;;;;;5009557;28;20697;-83
2023/04/04 04:45:22;;;;;;;5.13;4.00;;;15.30;42.70;;;;;;5017717;28;20674;-83
2023/04/04 04:47:55;;;;;;;4.47;3.78;;;15.30;42.40;;;;;;5018985;28;20609;-84
2023/04/04 04:50:24;;;;;;;5.45;4.18;;;15.30;42.00;;;;;;5018007;28;20290;-83
2023/04/04 04:52:51;;;;;;;4.05;3.65;;;15.30;41.90;;;;;;5018089;28;20306;-83
2023/04/04 04:55:19;;;;;;;5.50;3.85;;;15.30;42.00;;;;;;5018886;28;20206;-82
2023/04/04 04:57:54;;;;;;;5.35;4.05;;;15.30;42.00;;;;;;5019196;28;20215;-82
2023/04/04 05:00:25;;;;;;;5.82;3.53;;;15.30;42.00;;;;;;5019543;28;20208;-83
2023/04/04 05:02:54;;;;;;;4.10;3.30;;;15.30;42.10;;;;;;5018728;28;20208;-83
2023/04/04 05:05:30;;;;;;;4.55;3.50;;;15.30;42.00;;;;;;5034430;28;20183;-83
2023/04/04 05:08:03;;;;;;;4.63;3.60;;;15.30;42.00;;;;;;5030443;28;20219;-83
2023/04/04 05:10:31;;;;;;;3.80;3.35;;;15.30;42.10;;;;;;5019783;28;20188;-83
2023/04/04 05:12:58;;;;;;;4.00;3.47;;;15.40;42.10;;;;;;5022671;28;20263;-83
2023/04/04 05:15:31;;;;;;;3.95;3.55;;;15.40;42.20;;;;;;5021131;28;20196;-82
2023/04/04 05:17:58;;;;;;;4.50;3.55;;;15.40;42.20;;;;;;5018999;28;20216;-78
2023/04/04 05:20:26;;;;;;;3.92;3.20;;;15.40;42.70;;;;;;5016635;28;20282;-79
2023/04/04 05:22:55;;;;;;;5.25;3.72;;;15.50;42.20;;;;;;5016797;28;20188;-79
2023/04/04 05:25:32;;;;;;;5.10;3.97;;;15.50;41.60;;;;;;5016719;28;20204;-79
2023/04/04 05:28:00;;;;;;;5.55;4.03;;;15.50;41.80;;;;;;5016592;28;20220;-79
2023/04/04 05:30:27;;;;;;;4.60;3.55;;;15.50;41.50;;;;;;5016440;28;20224;-79
2023/04/04 05:33:08;;;;;;;4.13;3.72;;;15.50;41.60;;;;;;5016256;28;20207;-79
2023/04/04 05:35:37;;;;;;;4.60;3.80;;;15.60;41.50;;;;;;5017623;28;20192;-79
2023/04/04 05:38:06;;;;;;;3.60;3.10;;;15.60;41.70;;;;;;5017743;28;20304;-79
2023/04/04 05:40:35;;;;;;;4.40;3.20;;;15.70;42.50;;;;;;5022369;28;20215;-79
2023/04/04 05:43:08;;;;;;;4.43;3.10;;;15.70;41.90;;;;;;5020601;28;20195;-80
2023/04/04 05:45:45;;;;;;;4.35;3.03;;;15.90;41.50;;;;;;5020521;28;20597;-79
2023/04/04 05:48:14;;;;;;;3.85;3.33;;;16.10;41.30;;;;;;5000083;28;20192;-79
2023/04/04 05:50:48;;;;;;;5.15;3.42;;;16.30;40.60;;;;;;5016581;28;20183;-78
2023/04/04 05:53:19;;;;;;;3.53;3.00;;;16.50;40.20;;;;;;5016156;28;20200;-78
2023/04/04 05:55:51;;;;;;;3.80;3.15;;;16.80;40.40;;;;;;5017476;28;20206;-79
2023/04/04 05:58:21;;;;;;;5.80;3.20;;;16.90;39.90;;;;;;5015999;28;20207;-79
2023/04/04 06:00:53;;;;;;;3.63;3.33;;;17.10;39.80;;;;;;5015961;28;20223;-79
2023/04/04 06:03:20;;;;;;;3.95;3.08;;;17.30;39.10;;;;;;5016034;28;20298;-79
2023/04/04 06:05:50;;;;;;;3.70;3.13;;;17.40;38.90;;;;;;5018617;28;20283;-80
2023/04/04 06:08:19;;;;;;;3.50;2.88;;;17.50;38.90;;;;;;5018339;28;20357;-81
2023/04/04 06:10:46;;;;;;;4.03;3.13;;;17.60;38.70;;;;;;5016880;28;20286;-79
2023/04/04 06:13:13;;;;;;;4.10;3.08;;;17.70;38.20;;;;;;5016090;28;20230;-79
2023/04/04 06:15:43;;;;;;;4.38;2.92;;;17.80;37.70;;;;;;5019524;28;20655;-79
2023/04/04 06:18:12;;;;;;;3.90;2.83;;;17.70;38.10;;;;;;5022497;28;20282;-79
2023/04/04 06:20:57;;;;;;;5.00;3.08;;;17.70;37.50;;;;;;5148596;22;20254;-80
2023/04/04 06:23:26;;;;;;;3.28;2.95;;;17.70;37.80;;;;;;5038557;28;20218;-80
2023/04/04 06:25:53;;;;;;;4.00;2.70;;;17.60;38.00;;;;;;5037716;28;20199;-80
2023/04/04 06:28:22;;;;;;;3.60;3.03;;;17.70;37.60;;;;;;5039352;28;20200;-80
2023/04/04 06:30:49;;;;;;;4.45;3.15;;;17.80;37.50;;;;;;5037680;28;20282;-80
2023/04/04 06:33:26;;;;;;;2.85;2.60;;;18.00;37.50;;;;;;5038340;28;20199;-80
2023/04/04 06:35:55;;;;;;;3.05;2.75;;;18.20;37.50;;;;;;5021217;28;20204;-80
2023/04/04 06:38:23;;;;;;;3.50;2.85;;;18.40;37.50;;;;;;5037674;28;20718;-80
2023/04/04 06:40:53;;;;;;;2.97;2.53;;;18.60;37.10;;;;;;5021725;28;20217;-81
2023/04/04 06:43:21;;;;;;;3.10;2.67;;;18.80;36.80;;;;;;5037655;28;20204;-80
2023/04/04 06:45:49;;;;;;;3.30;3.00;;;19.00;36.60;;;;;;5038501;28;20227;-81
2023/04/04 06:48:19;;;;;;;4.03;2.80;;;19.20;36.50;;;;;;5037718;28;20565;-80
2023/04/04 06:50:47;;;;;;;4.20;3.00;;;19.40;36.10;;;;;;5037899;28;20192;-81
2023/04/04 06:53:17;;;;;;;3.10;2.78;;;19.60;36.10;;;;;;5037388;28;20200;-80
2023/04/04 06:55:44;;;;;;;3.30;3.00;;;19.70;35.90;;;;;;5021134;28;20211;-80
2023/04/04 06:58:13;;;;;;;3.63;2.97;;;19.90;35.80;;;;;;5036821;28;20200;-80
2023/04/04 07:00:40;;;;;;;3.33;2.70;;;20.00;35.50;;;;;;5036378;28;20647;-80
2023/04/04 07:03:08;;;;;;;4.63;2.60;;;20.10;35.30;;;;;;5037006;28;20210;-80
2023/04/04 07:05:38;;;;;;;3.50;2.63;;;20.20;35.10;;;;;;5038142;28;20230;-80
2023/04/04 07:08:05;;;;;;;3.97;2.75;;;20.30;35.10;;;;;;5036993;28;20223;-81
2023/04/04 07:10:33;;;;;;;2.95;2.65;;;20.40;35.10;;;;;;5020455;28;20631;-80
2023/04/04 07:13:00;;;;;;;2.50;2.30;;;20.50;35.00;;;;;;5037065;28;20188;-80
2023/04/04 07:15:28;;;;;;;3.20;2.53;;;20.60;34.90;;;;;;5037387;28;20239;-80
2023/04/04 07:17:56;;;;;;;2.63;2.40;;;20.70;35.00;;;;;;5036710;28;20661;-80
2023/04/04 07:20:23;;;;;;;3.50;2.45;;;20.80;35.00;;;;;;5020062;28;20200;-80
2023/04/04 07:22:51;;;;;;;2.65;2.45;;;20.80;34.70;;;;;;5036752;28;20695;-80
2023/04/04 07:25:18;;;;;;;2.97;2.40;;;20.90;34.80;;;;;;5035699;28;20192;-80
2023/04/04 07:27:45;;;;;;;2.85;2.20;;;21.00;34.70;;;;;;5035895;28;20231;-80
2023/04/04 07:30:13;;;;;;;2.20;2.00;;;21.10;34.50;;;;;;5019863;28;20204;-80
2023/04/04 07:32:42;;;;;;;2.63;2.40;;;21.10;34.40;;;;;;5036445;28;20192;-81
2023/04/04 07:35:10;;;;;;;2.60;2.20;;;21.20;34.50;;;;;;5037727;28;20208;-80
2023/04/04 07:37:37;;;;;;;2.58;2.13;;;21.30;34.40;;;;;;5035930;28;20220;-80
2023/04/04 07:40:06;;;;;;;3.50;2.35;;;21.30;34.20;;;;;;5036015;28;20204;-80
2023/04/04 07:42:34;;;;;;;2.42;2.20;;;21.40;34.10;;;;;;5035804;28;20227;-80
2023/04/04 07:45:01;;;;;;;2.25;2.05;;;21.50;34.10;;;;;;5036266;28;20255;-81
2023/04/04 07:47:29;;;;;;;2.53;2.33;;;21.50;34.10;;;;;;5037480;28;20620;-81
2023/04/04 07:49:57;;;;;;;2.50;2.25;;;21.50;34.00;;;;;;5036258;28;20207;-81
2023/04/04 07:52:24;;;;;;;2.53;2.33;;;21.60;33.70;;;;;;5036314;28;20196;-80
2023/04/04 07:54:52;;;;;;;4.20;2.20;;;21.70;34.50;;;;;;5035989;28;20204;-80
2023/04/04 07:57:20;;;;;;;2.53;2.20;;;21.70;33.80;;;;;;5019869;28;20729;-80
2023/04/04 07:59:47;;;;;;;2.65;2.13;;;21.80;33.80;;;;;;5035901;28;20203;-80
2023/04/04 08:02:14;;;;;;;3.28;2.28;;;21.90;33.60;;;;;;5035806;28;20227;-80
2023/04/04 08:04:41;;;;;;;3.42;2.05;;;21.90;33.70;;;;;;5035828;28;20200;-80
2023/04/04 08:07:10;;;;;;;3.33;2.20;;;22.00;33.50;;;;;;5035675;28;20695;-81
2023/04/04 08:09:37;;;;;;;3.08;2.40;;;22.00;33.30;;;;;;5037177;28;20202;-80
2023/04/04 08:12:05;;;;;;;2.22;2.05;;;22.10;33.40;;;;;;5037149;28;20647;-80
2023/04/04 08:14:33;;;;;;;2.50;2.30;;;22.20;33.20;;;;;;5036180;28;20196;-80
2023/04/04 08:17:01;;;;;;;2.22;2.03;;;22.20;33.00;;;;;;5036081;28;20211;-80
2023/04/04 08:19:28;;;;;;;2.50;2.10;;;22.30;33.20;;;;;;5036448;28;20283;-80
2023/04/04 08:21:55;;;;;;;2.42;2.22;;;22.30;33.10;;;;;;5036510;28;20231;-80
2023/04/04 08:24:24;;;;;;;2.22;2.03;;;22.40;33.10;;;;;;5035591;28;20196;-80
2023/04/04 08:26:51;;;;;;;2.67;2.20;;;22.40;33.00;;;;;;5035615;28;20223;-80
2023/04/04 08:29:18;;;;;;;2.20;2.00;;;22.50;32.90;;;;;;5039112;28;20196;-81
2023/04/04 08:31:46;;;;;;;2.78;1.90;;;22.50;33.00;;;;;;5040134;28;20208;-81
2023/04/04 08:34:13;;;;;;;2.20;2.00;;;22.60;32.90;;;;;;5039628;28;20227;-80
2023/04/04 08:36:41;;;;;;;2.13;1.92;;;22.60;32.60;;;;;;5039422;28;20684;-81
2023/04/04 08:39:08;;;;;;;2.28;2.08;;;22.60;32.60;;;;;;5039434;28;20196;-81
2023/04/04 08:41:36;;;;;;;2.75;2.08;;;22.60;32.60;;;;;;5035197;28;20270;-80
2023/04/04 08:44:04;;;;;;;2.10;1.90;;;22.70;32.50;;;;;;5034610;28;20238;-80
2023/04/04 08:46:31;;;;;;;2.20;2.00;;;22.80;32.40;;;;;;5034752;28;20282;-80
2023/04/04 08:48:58;;;;;;;2.45;2.00;;;22.80;32.20;;;;;;5034567;28;20581;-80
2023/04/04 08:51:25;;;;;;;2.70;1.90;;;22.80;32.90;;;;;;5034678;28;20192;-80
2023/04/04 08:53:52;;;;;;;3.30;2.20;;;22.80;32.10;;;;;;5034793;28;20195;-80
2023/04/04 08:56:20;;;;;;;2.20;2.00;;;22.90;32.20;;;;;;5037361;28;20224;-80
2023/04/04 08:58:49;;;;;;;2.30;1.90;;;22.90;32.40;;;;;;5038031;28;20201;-81
2023/04/04 09:01:16;;;;;;;2.55;1.92;;;22.80;32.20;;;;;;5037253;28;20200;-80
2023/04/04 09:03:43;;;;;;;3.13;2.30;;;22.80;32.20;;;;;;5036689;28;20200;-81
2023/04/04 09:06:11;;;;;;;2.28;2.00;;;22.90;32.20;;;;;;5034730;28;20212;-81
2023/04/04 09:08:38;;;;;;;2.85;1.98;;;22.90;32.20;;;;;;5034434;28;20570;-80
2023/04/04 09:11:05;;;;;;;2.90;1.95;;;23.00;32.00;;;;;;5034589;28;20218;-80
2023/04/04 09:13:32;;;;;;;2.67;2.17;;;23.10;32.10;;;;;;5034072;28;20200;-81
2023/04/04 09:16:01;;;;;;;2.20;2.00;;;22.90;32.10;;;;;;5034837;28;20235;-80
2023/04/04 09:18:28;;;;;;;2.13;1.90;;;22.90;32.20;;;;;;5035211;28;20200;-80
2023/04/04 09:20:55;;;;;;;2.10;1.90;;;22.80;32.20;;;;;;5034503;28;20306;-81
2023/04/04 09:23:23;;;;;;;2.40;2.20;;;22.80;32.40;;;;;;5034813;28;20307;-80
2023/04/04 09:25:51;;;;;;;2.17;1.98;;;22.70;32.50;;;;;;5034030;28;20290;-79
2023/04/04 09:28:19;;;;;;;2.03;1.83;;;22.60;32.40;;;;;;5034358;28;20203;-79
2023/04/04 09:30:48;;;;;;;2.25;1.95;;;22.70;32.50;;;;;;5034027;28;20196;-79
2023/04/04 09:33:17;;;;;;;2.38;2.00;;;22.70;32.50;;;;;;5034480;28;20196;-79
2023/04/04 09:35:45;;;;;;;2.83;2.20;;;22.80;32.20;;;;;;5034258;28;20207;-79
2023/04/04 09:38:13;;;;;;;2.20;2.00;;;22.80;32.00;;;;;;5034084;28;20223;-79
2023/04/04 09:40:41;;;;;;;2.70;2.03;;;23.00;32.10;;;;;;5033667;28;20200;-80
2023/04/04 09:43:08;;;;;;;2.05;1.85;;;23.00;31.80;;;;;;5034398;28;20230;-79
2023/04/04 09:45:37;;;;;;;2.05;1.65;;;23.00;31.90;;;;;;5034045;28;20663;-79
2023/04/04 09:48:04;;;;;;;1.83;1.73;;;23.00;31.90;;;;;;5033645;28;20231;-79
2023/04/04 09:50:33;;;;;;;2.50;2.17;;;23.00;31.90;;;;;;5033261;28;20208;-79
2023/04/04 09:53:00;;;;;;;2.00;1.80;;;23.00;31.80;;;;;;5033942;28;20195;-79
2023/04/04 09:55:35;;;;;;;2.10;1.90;;;23.00;31.80;;;;;;5033759;28;20204;-79
2023/04/04 09:58:11;;;;;;;2.60;1.98;;;23.00;32.00;;;;;;5034454;28;20261;-81
2023/04/04 10:00:41;;;;;;;2.20;2.00;;;22.80;32.10;;;;;;5033810;28;20196;-80
2023/04/04 10:03:11;;;;;;;3.08;2.03;;;22.80;32.40;;;;;;5033652;28;20238;-79
2023/04/04 10:05:39;;;;;;;1.90;1.75;;;22.60;32.50;;;;;;5033640;28;20188;-79
2023/04/04 10:08:14;;;;;;;2.88;1.90;;;22.50;32.60;;;;;;5033350;28;20247;-80
2023/04/04 10:10:47;;;;;;;2.83;1.80;;;22.40;32.70;;;;;;5017295;28;20187;-80
2023/04/04 10:13:14;;;;;;;1.83;1.73;;;22.40;32.80;;;;;;5034231;28;20208;-80
2023/04/04 10:15:43;;;;;;;1.85;1.65;;;22.30;32.70;;;;;;5033670;28;20200;-80
2023/04/04 10:18:10;;;;;;;2.38;1.70;;;22.40;32.80;;;;;;5033636;28;20247;-80
2023/04/04 10:20:39;;;;;;;1.85;1.70;;;22.50;32.70;;;;;;5033301;28;20227;-80
2023/04/04 10:23:06;;;;;;;1.80;1.70;;;22.50;32.60;;;;;;5034754;28;20216;-80
2023/04/04 10:25:35;;;;;;;1.92;1.73;;;22.50;32.60;;;;;;5018397;28;20290;-80
2023/04/04 10:28:02;;;;;;;1.98;1.75;;;22.50;32.80;;;;;;5017878;28;20239;-80
2023/04/04 10:30:30;;;;;;;1.90;1.70;;;22.50;32.70;;;;;;5034288;28;20219;-82
2023/04/04 10:33:06;;;;;;;2.00;1.63;;;22.50;32.80;;;;;;5033729;28;20659;-80
2023/04/04 10:35:34;;;;;;;3.63;1.88;;;22.50;33.00;;;;;;5033345;28;20204;-80
2023/04/04 10:38:05;;;;;;;1.60;1.50;;;22.50;32.80;;;;;;5033716;28;20224;-80
2023/04/04 10:40:36;;;;;;;1.85;1.70;;;22.40;32.80;;;;;;5033210;28;20196;-80
2023/04/04 10:43:06;;;;;;;1.75;1.65;;;22.50;32.90;;;;;;5035491;28;20247;-80
2023/04/04 10:45:33;;;;;;;1.73;1.63;;;22.40;32.80;;;;;;5017799;28;20200;-80
2023/04/04 10:48:01;;;;;;;1.80;1.67;;;22.40;32.80;;;;;;5033024;28;20274;-80
2023/04/04 10:50:30;;;;;;;1.77;1.60;;;22.40;32.80;;;;;;5033331;28;20291;-80
2023/04/04 10:52:59;;;;;;;1.92;1.70;;;22.40;32.80;;;;;;5017248;28;20197;-80
2023/04/04 10:55:28;;;;;;;2.28;2.03;;;22.40;32.80;;;;;;5033340;28;20219;-80
2023/04/04 10:57:55;;;;;;;2.28;1.95;;;22.40;32.80;;;;;;5033034;28;20235;-80
2023/04/04 11:00:23;;;;;;;1.80;1.70;;;22.40;32.90;;;;;;5034398;28;20527;-80
2023/04/04 11:02:54;;;;;;;1.80;1.70;;;22.30;32.90;;;;;;5036703;28;20708;-80
2023/04/04 11:05:23;;;;;;;1.88;1.73;;;22.30;33.00;;;;;;5037479;28;20192;-80
2023/04/04 11:07:56;;;;;;;1.63;1.50;;;22.30;32.80;;;;;;5036690;28;20216;-80
2023/04/04 11:10:24;;;;;;;1.92;1.67;;;22.20;33.00;;;;;;5037095;28;20199;-80
2023/04/04 11:12:57;;;;;;;2.28;1.90;;;22.20;33.10;;;;;;5036318;28;20339;-80
2023/04/04 11:15:26;;;;;;;1.60;1.50;;;22.10;33.20;;;;;;5036956;28;20208;-80
2023/04/04 11:17:58;;;;;;;2.22;1.80;;;22.10;33.20;;;;;;5037234;28;20220;-80
2023/04/04 11:20:29;;;;;;;1.60;1.50;;;22.10;33.30;;;;;;5036430;28;20311;-80
2023/04/04 11:23:07;;;;;;;1.63;1.52;;;22.00;33.30;;;;;;5036523;28;20228;-80
2023/04/04 11:25:36;;;;;;;2.10;1.80;;;22.00;33.60;;;;;;5036492;28;20293;-80
2023/04/04 11:28:09;;;;;;;1.98;1.60;;;21.90;33.60;;;;;;5036069;28;20226;-80
2023/04/04 11:30:42;;;;;;;1.70;1.60;;;21.90;33.40;;;;;;5036295;28;20574;-80
2023/04/04 11:33:11;;;;;;;2.28;1.60;;;22.00;33.60;;;;;;5036797;28;20202;-80
2023/04/04 11:35:39;;;;;;;1.50;1.40;;;21.90;33.50;;;;;;5036144;28;20218;-80
2023/04/04 11:38:13;;;;;;;1.65;1.55;;;21.90;33.50;;;;;;5036454;28;20223;-80
2023/04/04 11:40:41;;;;;;;1.75;1.50;;;21.90;33.60;;;;;;5036051;28;20196;-80
2023/04/04 11:43:11;;;;;;;1.80;1.70;;;21.90;33.50;;;;;;5035764;28;20303;-80
2023/04/04 11:45:43;;;;;;;1.80;1.50;;;21.90;33.40;;;;;;5036818;28;20642;-80
2023/04/04 11:48:11;;;;;;;2.03;1.70;;;21.80;33.60;;;;;;5023942;28;20220;-80
2023/04/04 11:50:39;;;;;;;1.92;1.75;;;21.80;33.40;;;;;;5041070;28;20267;-80
2023/04/04 11:53:08;;;;;;;1.70;1.60;;;21.80;33.10;;;;;;5041121;28;20196;-80
2023/04/04 11:55:39;;;;;;;2.05;1.73;;;21.90;32.40;;;;;;5037308;28;20231;-80
2023/04/04 11:58:10;;;;;;;1.88;1.77;;;21.90;32.30;;;;;;5035873;28;20690;-80
2023/04/04 12:00:38;;;;;;;1.90;1.73;;;22.00;32.00;;;;;;5035680;28;20202;-80
2023/04/04 12:03:06;;;;;;;1.92;1.73;;;21.90;31.80;;;;;;5035578;28;20695;-80
2023/04/04 12:05:33;;;;;;;1.88;1.70;;;22.00;31.40;;;;;;5035712;28;20200;-80
2023/04/04 12:08:01;;;;;;;2.10;1.60;;;22.00;31.40;;;;;;5035667;28;20204;-80
2023/04/04 12:10:30;;;;;;;2.40;1.90;;;22.00;32.30;;;;;;5035596;28;20578;-80
2023/04/04 12:12:58;;;;;;;1.85;1.67;;;22.00;32.10;;;;;;5034552;28;20188;-80
2023/04/04 12:15:32;;;;;;;2.17;1.70;;;21.90;31.20;;;;;;5035349;28;20251;-80
2023/04/04 12:18:01;;;;;;;1.45;1.35;;;21.90;31.40;;;;;;5038229;28;20207;-80
2023/04/04 12:23:02;;;;;;;1.85;1.75;;;21.90;32.30;;;;;;5033857;28;20261;-67
2023/04/04 12:25:32;;;;;;;1.90;1.70;;;21.90;31.40;;;;;;5033393;28;20597;-69
2023/04/04 12:28:02;;;;;;;2.10;1.90;;;21.80;32.60;;;;;;5016994;28;20236;-68
2023/04/04 12:30:32;;;;;;;2.03;1.80;;;21.80;32.70;;;;;;5034313;28;20192;-68
2023/04/04 12:33:00;;;;;;;1.80;1.70;;;21.80;31.40;;;;;;5033443;28;20632;-68
2023/04/04 12:35:28;;;;;;;1.88;1.60;;;21.70;31.20;;;;;;5033248;28;20296;-69
2023/04/04 12:38:02;;;;;;;2.08;1.77;;;21.70;31.90;;;;;;5033467;28;20788;-68
2023/04/04 12:40:32;;;;;;;1.80;1.70;;;21.70;31.60;;;;;;5033057;28;20201;-69
2023/04/04 12:43:01;;;;;;;2.13;1.83;;;21.70;32.60;;;;;;5033231;28;20223;-69
2023/04/04 12:45:30;;;;;;;2.00;1.80;;;21.60;32.60;;;;;;5033880;28;20243;-68
2023/04/04 12:47:58;;;;;;;2.00;1.80;;;21.60;33.00;;;;;;5033019;28;20220;-69
2023/04/04 12:50:28;;;;;;;2.70;1.83;;;21.50;33.00;;;;;;5033071;28;20231;-69
2023/04/04 12:52:56;;;;;;;1.80;1.70;;;21.50;33.20;;;;;;5033262;28;20223;-70
2023/04/04 12:55:24;;;;;;;1.85;1.75;;;21.50;33.60;;;;;;5032827;28;20731;-67
2023/04/04 12:57:52;;;;;;;1.83;1.70;;;21.50;32.70;;;;;;5032720;28;20220;-69